Time;durP1;ratioP1;P1;durP2;ratioP2;P2;SDS_P1;SDS_P2;PMS_P1;PMS_P2;Temp;Humidity;BMP_temperature;BMP_pressure;BME280_temperature;BME280_humidity;BME280_pressure;Samples;Min_cycle;Max_cycle;Signal;HPM_P1;HPM_P2
2022/01/27 00:01:07;;;;;;;31.27;16.00;;;2.70;99.90;;;;;;5073345;28;20190;-44
2022/01/27 00:03:49;;;;;;;48.33;23.17;;;2.70;99.90;;;;;;5073732;28;20206;-42
2022/01/27 00:06:16;;;;;;;48.43;21.37;;;2.70;99.90;;;;;;5073150;28;20274;-42
2022/01/27 00:08:52;;;;;;;51.33;23.10;;;2.70;99.90;;;;;;5056843;28;20183;-42
2022/01/27 00:11:17;;;;;;;50.70;22.30;;;2.60;99.90;;;;;;5076880;28;20607;-43
2022/01/27 00:14:03;;;;;;;37.57;16.07;;;2.70;99.90;;;;;;5042179;28;20183;-45
2022/01/27 00:16:34;;;;;;;56.07;23.43;;;2.60;99.90;;;;;;5076700;28;20235;-45
2022/01/27 00:19:00;;;;;;;43.10;19.60;;;2.60;99.90;;;;;;5058863;28;20185;-44
2022/01/27 00:21:27;;;;;;;44.00;19.93;;;2.60;99.90;;;;;;5058939;28;20703;-44
2022/01/27 00:23:53;;;;;;;34.93;15.90;;;2.60;99.90;;;;;;5076548;28;20290;-47
2022/01/27 00:26:21;;;;;;;50.63;21.30;;;2.60;99.90;;;;;;5058454;28;20625;-46
2022/01/27 00:28:47;;;;;;;39.87;17.40;;;2.60;99.90;;;;;;5076621;28;20219;-46
2022/01/27 00:31:15;;;;;;;37.57;15.27;;;2.60;99.90;;;;;;5058342;28;20186;-47
2022/01/27 00:33:40;;;;;;;49.50;20.27;;;2.60;99.90;;;;;;5076293;28;20620;-46
2022/01/27 00:36:06;;;;;;;53.50;21.77;;;2.60;99.90;;;;;;5058240;28;20217;-47
2022/01/27 00:38:33;;;;;;;55.00;24.07;;;2.60;99.90;;;;;;5058252;28;20196;-46
2022/01/27 00:40:59;;;;;;;50.80;20.07;;;2.60;99.90;;;;;;5076399;28;20186;-44
2022/01/27 00:43:24;;;;;;;56.27;21.80;;;2.60;99.90;;;;;;5076298;28;20256;-46
2022/01/27 00:45:50;;;;;;;56.20;22.40;;;2.60;99.90;;;;;;5058067;28;20230;-46
2022/01/27 00:48:17;;;;;;;55.77;22.87;;;2.60;99.90;;;;;;5058115;28;20183;-46
2022/01/27 00:51:00;;;;;;;49.07;19.03;;;2.60;99.90;;;;;;5075897;28;20186;-45
2022/01/27 00:53:39;;;;;;;50.57;22.53;;;2.60;99.90;;;;;;5058003;28;20566;-45
2022/01/27 00:56:34;;;;;;;48.47;20.20;;;2.60;99.90;;;;;;5075802;28;20213;-45
2022/01/27 01:01:21;;;;;;;53.33;22.00;;;2.60;99.90;;;;;;5075804;28;20427;-46
2022/01/27 01:03:49;;;;;;;50.27;21.80;;;2.60;99.90;;;;;;5057688;28;20211;-47
2022/01/27 01:06:49;;;;;;;48.70;20.70;;;2.60;99.90;;;;;;5075577;28;20696;-47
2022/01/27 01:14:51;;;;;;;36.23;16.83;;;2.60;99.90;;;;;;5075984;28;20177;-47
2022/01/27 01:33:09;;;;;;;39.10;14.80;;;2.70;99.90;;;;;;5075588;28;20164;-47
2022/01/27 01:35:48;;;;;;;39.93;17.57;;;2.70;99.90;;;;;;5058039;28;20570;-48
2022/01/27 01:38:21;;;;;;;35.37;12.90;;;2.70;99.90;;;;;;5057438;28;20526;-47
2022/01/27 01:40:49;;;;;;;45.80;19.60;;;2.70;99.90;;;;;;5075405;28;20221;-46
2022/01/27 01:43:17;;;;;;;26.33;13.07;;;2.70;99.90;;;;;;5075336;28;20175;-46
2022/01/27 01:45:42;;;;;;;47.87;20.37;;;2.70;99.90;;;;;;5075201;28;20301;-46
2022/01/27 01:48:08;;;;;;;53.90;20.63;;;2.70;99.90;;;;;;5075199;28;20681;-46
2022/01/27 01:50:35;;;;;;;46.27;20.70;;;2.80;99.90;;;;;;5056978;28;20213;-48
2022/01/27 01:53:01;;;;;;;46.43;19.53;;;2.80;99.90;;;;;;5056800;28;20194;-47
2022/01/27 01:55:26;;;;;;;45.57;20.93;;;2.80;99.90;;;;;;5074662;28;20237;-45
2022/01/27 01:57:52;;;;;;;44.07;17.63;;;2.80;99.90;;;;;;5075269;28;20180;-46
2022/01/27 02:00:18;;;;;;;43.90;21.20;;;2.80;99.90;;;;;;5074841;28;20185;-45
2022/01/27 02:02:44;;;;;;;37.33;15.67;;;2.80;99.90;;;;;;5056720;28;20190;-46
2022/01/27 02:05:11;;;;;;;45.97;18.97;;;2.80;99.90;;;;;;5074475;28;20203;-46
2022/01/27 02:07:56;;;;;;;40.70;18.30;;;2.80;99.90;;;;;;5074584;28;20424;-46
2022/01/27 02:17:58;;;;;;;36.53;15.37;;;2.80;99.90;;;;;;5074785;28;20159;-45
2022/01/27 02:19:06;;;;;;;42.83;20.07;;;2.80;99.90;;;;;;5074752;28;20590;-45
2022/01/27 02:21:32;;;;;;;29.70;13.27;;;2.80;99.90;;;;;;5074191;28;20250;-45
2022/01/27 02:23:57;;;;;;;26.73;13.00;;;2.80;99.90;;;;;;5074508;28;20759;-45
2022/01/27 02:26:23;;;;;;;23.30;11.60;;;2.80;99.90;;;;;;5074111;28;20278;-47
2022/01/27 02:28:49;;;;;;;41.63;17.63;;;2.80;99.90;;;;;;5074046;28;20539;-46
2022/01/27 02:31:14;;;;;;;43.33;19.40;;;2.80;99.90;;;;;;5073783;28;20258;-46
2022/01/27 02:33:40;;;;;;;22.60;10.23;;;2.80;99.90;;;;;;5073987;28;20190;-46
2022/01/27 02:36:06;;;;;;;43.33;17.90;;;2.80;99.90;;;;;;5074144;28;20206;-46
2022/01/27 02:38:31;;;;;;;19.17;9.30;;;2.80;99.90;;;;;;5074193;28;20184;-47
2022/01/27 02:41:03;;;;;;;46.93;20.13;;;2.80;99.90;;;;;;5086673;22;20215;-47
2022/01/27 02:43:28;;;;;;;41.07;17.90;;;2.80;99.90;;;;;;5074037;28;20203;-46
2022/01/27 02:46:06;;;;;;;43.80;18.73;;;2.80;99.90;;;;;;5073821;28;20191;-48
2022/01/27 02:48:32;;;;;;;33.60;15.27;;;2.80;99.90;;;;;;5074322;28;20217;-47
2022/01/27 02:50:58;;;;;;;39.00;15.13;;;2.80;99.90;;;;;;5074048;28;20258;-47
2022/01/27 02:53:23;;;;;;;30.10;13.67;;;2.80;99.90;;;;;;5073728;28;20186;-46
2022/01/27 02:55:49;;;;;;;28.10;12.60;;;2.80;99.90;;;;;;5055706;28;20352;-45
2022/01/27 02:58:15;;;;;;;38.50;17.23;;;2.80;99.90;;;;;;5073963;28;20273;-47
2022/01/27 03:00:41;;;;;;;37.23;17.17;;;2.80;99.90;;;;;;5073737;28;20515;-47
2022/01/27 03:03:07;;;;;;;37.33;16.67;;;2.80;99.90;;;;;;5056024;28;20193;-47
2022/01/27 03:05:32;;;;;;;39.60;16.63;;;2.90;99.90;;;;;;5073913;28;20175;-43
2022/01/27 03:07:58;;;;;;;37.77;16.80;;;2.80;99.90;;;;;;5073662;28;20720;-41
2022/01/27 03:10:29;;;;;;;33.93;16.40;;;2.90;99.90;;;;;;5055558;28;20573;-39
2022/01/27 03:12:59;;;;;;;40.03;17.57;;;2.90;99.90;;;;;;5073515;28;20258;-39
2022/01/27 03:15:25;;;;;;;40.03;17.23;;;2.90;99.90;;;;;;5073322;28;20171;-41
2022/01/27 03:17:51;;;;;;;35.33;15.70;;;2.90;99.90;;;;;;5073643;28;20626;-41
2022/01/27 03:20:17;;;;;;;43.53;17.93;;;2.90;99.90;;;;;;5073616;28;20176;-39
2022/01/27 03:22:42;;;;;;;42.30;19.13;;;2.90;99.90;;;;;;5073261;28;20259;-41
2022/01/27 03:25:08;;;;;;;43.17;19.10;;;3.00;99.90;;;;;;5073756;28;20254;-41
2022/01/27 03:27:34;;;;;;;47.20;18.50;;;2.90;99.90;;;;;;5073207;28;20192;-40
2022/01/27 03:30:00;;;;;;;36.40;17.40;;;2.90;99.90;;;;;;5073275;28;20171;-39
2022/01/27 03:32:27;;;;;;;40.93;18.73;;;2.90;99.90;;;;;;5073519;28;20202;-44
2022/01/27 03:34:53;;;;;;;35.80;17.80;;;3.00;99.90;;;;;;5073219;28;20172;-42
2022/01/27 03:37:19;;;;;;;40.50;18.53;;;3.00;99.90;;;;;;5073047;28;20278;-41
2022/01/27 03:39:44;;;;;;;31.93;14.30;;;3.00;99.90;;;;;;5073414;28;20217;-40
2022/01/27 03:42:10;;;;;;;40.33;18.73;;;3.00;99.90;;;;;;5073157;28;20527;-41
2022/01/27 03:44:36;;;;;;;41.10;18.60;;;3.10;99.90;;;;;;5076266;28;20254;-40
2022/01/27 03:47:02;;;;;;;39.73;18.17;;;3.10;99.90;;;;;;5077344;28;20694;-40
2022/01/27 03:49:28;;;;;;;36.53;17.07;;;3.10;99.90;;;;;;5077197;28;20521;-43
2022/01/27 03:51:59;;;;;;;36.40;16.73;;;3.10;99.90;;;;;;5077302;28;20225;-39
2022/01/27 03:54:25;;;;;;;33.77;15.53;;;3.10;99.90;;;;;;5077415;28;20198;-41
2022/01/27 03:56:50;;;;;;;35.97;16.47;;;3.20;99.90;;;;;;5077018;28;20585;-39
2022/01/27 03:59:16;;;;;;;35.23;16.60;;;3.20;99.90;;;;;;5077340;28;20183;-40
2022/01/27 04:01:41;;;;;;;35.37;18.40;;;3.20;99.90;;;;;;5077335;28;20171;-43
2022/01/27 04:04:07;;;;;;;35.63;17.17;;;3.30;99.90;;;;;;5058877;28;20214;-42
2022/01/27 04:06:33;;;;;;;40.20;17.73;;;3.30;99.90;;;;;;5076913;28;20234;-41
2022/01/27 04:09:00;;;;;;;36.77;17.20;;;3.30;99.90;;;;;;5077552;28;20258;-41
2022/01/27 04:11:26;;;;;;;40.73;18.73;;;3.30;99.90;;;;;;5076866;28;20255;-42
2022/01/27 04:13:52;;;;;;;30.70;14.53;;;3.40;99.90;;;;;;5076819;28;20219;-43
2022/01/27 04:16:17;;;;;;;39.87;18.33;;;3.40;99.90;;;;;;5077079;28;20231;-41
2022/01/27 04:18:43;;;;;;;31.27;13.87;;;3.40;99.90;;;;;;5076699;28;20179;-41
2022/01/27 04:21:08;;;;;;;34.97;16.60;;;3.40;99.90;;;;;;5076820;28;20183;-44
2022/01/27 04:23:34;;;;;;;27.93;12.93;;;3.50;99.90;;;;;;5076698;28;20207;-43
2022/01/27 04:26:00;;;;;;;36.20;16.53;;;3.50;99.90;;;;;;5076930;28;20562;-42
2022/01/27 04:28:30;;;;;;;35.87;17.67;;;3.60;99.90;;;;;;5077497;28;20589;-42
2022/01/27 04:30:58;;;;;;;32.07;15.27;;;3.60;99.90;;;;;;5076667;28;20257;-41
2022/01/27 04:33:26;;;;;;;38.53;18.40;;;3.60;99.90;;;;;;5076623;28;20199;-43
2022/01/27 04:35:56;;;;;;;22.10;11.60;;;3.70;99.90;;;;;;5076369;28;20191;-40
2022/01/27 04:38:50;;;;;;;31.53;15.23;;;3.70;99.90;;;;;;5076414;28;20202;-42
2022/01/27 04:41:15;;;;;;;32.83;15.20;;;3.70;99.90;;;;;;5075832;28;20230;-42
2022/01/27 04:44:00;;;;;;;32.17;15.67;;;3.80;99.90;;;;;;5076647;28;20199;-42
2022/01/27 04:47:15;;;;;;;32.63;14.53;;;3.80;99.90;;;;;;5076473;28;20195;-43
2022/01/27 04:49:15;;;;;;;31.60;14.43;;;3.90;99.90;;;;;;5070477;28;20187;-41
2022/01/27 04:51:40;;;;;;;34.53;16.63;;;3.90;99.90;;;;;;5076279;28;20538;-40
2022/01/27 04:54:17;;;;;;;31.97;16.43;;;3.90;99.90;;;;;;5075531;28;20172;-43
2022/01/27 04:56:43;;;;;;;25.67;11.93;;;3.90;99.90;;;;;;5076312;28;20207;-43
2022/01/27 04:59:16;;;;;;;35.30;15.10;;;4.00;99.90;;;;;;5076336;28;20176;-43
2022/01/27 05:01:57;;;;;;;23.60;11.63;;;4.00;99.90;;;;;;5076152;28;20302;-42
2022/01/27 05:04:28;;;;;;;30.07;14.17;;;4.00;99.90;;;;;;5076244;28;20567;-42
2022/01/27 05:06:54;;;;;;;29.90;12.63;;;4.10;99.90;;;;;;5075780;28;20190;-41
2022/01/27 05:09:20;;;;;;;27.77;13.43;;;4.10;99.90;;;;;;5075799;28;20294;-42
2022/01/27 05:11:53;;;;;;;31.87;15.77;;;4.10;99.90;;;;;;5058053;28;20198;-41
2022/01/27 05:14:24;;;;;;;27.53;12.13;;;4.10;99.90;;;;;;5076028;28;20164;-43
2022/01/27 05:16:51;;;;;;;19.83;10.40;;;4.10;99.90;;;;;;5057790;28;20207;-41
2022/01/27 05:19:17;;;;;;;30.63;13.13;;;4.10;99.90;;;;;;5075700;28;20171;-41
2022/01/27 05:21:42;;;;;;;24.13;12.37;;;4.20;99.90;;;;;;5075786;28;20176;-42
2022/01/27 05:24:09;;;;;;;16.13;9.27;;;4.20;99.90;;;;;;5075752;28;20697;-41
2022/01/27 05:26:35;;;;;;;28.23;13.30;;;4.20;99.90;;;;;;5075521;28;20191;-42
2022/01/27 05:29:04;;;;;;;33.27;15.90;;;4.20;99.90;;;;;;5075404;28;20175;-39
2022/01/27 05:31:30;;;;;;;22.03;10.33;;;4.20;99.90;;;;;;5057471;28;20175;-42
2022/01/27 05:33:56;;;;;;;27.47;13.73;;;4.20;99.90;;;;;;5075378;28;20266;-41
2022/01/27 05:36:22;;;;;;;23.07;11.07;;;4.30;99.90;;;;;;5075446;28;20192;-41
2022/01/27 05:38:47;;;;;;;20.40;9.03;;;4.30;99.90;;;;;;5075603;28;20220;-44
2022/01/27 05:41:14;;;;;;;31.00;14.97;;;4.30;99.90;;;;;;5075341;28;20682;-41
2022/01/27 05:43:41;;;;;;;33.43;15.57;;;4.40;99.90;;;;;;5057257;28;20210;-41
2022/01/27 05:46:07;;;;;;;26.37;13.03;;;4.40;99.90;;;;;;5057135;28;20659;-44
2022/01/27 05:48:32;;;;;;;20.07;9.50;;;4.40;99.90;;;;;;5075331;28;20179;-41
2022/01/27 05:50:59;;;;;;;33.63;14.53;;;4.40;99.90;;;;;;5075107;28;20183;-43
2022/01/27 05:53:25;;;;;;;27.53;14.07;;;4.40;99.90;;;;;;5075316;28;20228;-41
2022/01/27 05:55:51;;;;;;;23.53;12.50;;;4.40;99.90;;;;;;5056986;28;20219;-41
2022/01/27 05:58:17;;;;;;;15.67;8.07;;;4.50;99.90;;;;;;5075233;28;20199;-44
2022/01/27 06:00:42;;;;;;;33.13;14.77;;;4.50;99.90;;;;;;5075024;28;20639;-43
2022/01/27 06:03:08;;;;;;;27.20;13.13;;;4.50;99.90;;;;;;5074941;28;20224;-43
2022/01/27 06:05:34;;;;;;;29.70;12.77;;;4.50;99.90;;;;;;5073955;28;20216;-42
2022/01/27 06:08:00;;;;;;;25.93;11.20;;;4.50;99.90;;;;;;5075069;28;20183;-42
2022/01/27 06:10:26;;;;;;;29.83;14.03;;;4.50;99.90;;;;;;5074675;28;20195;-44
2022/01/27 06:12:53;;;;;;;26.97;13.00;;;4.50;99.90;;;;;;5074746;28;20179;-42
2022/01/27 06:15:20;;;;;;;21.43;11.63;;;4.50;99.90;;;;;;5074572;28;20236;-43
2022/01/27 06:17:46;;;;;;;20.93;11.07;;;4.50;99.90;;;;;;5056474;28;20210;-41
2022/01/27 06:20:12;;;;;;;28.80;13.33;;;4.60;99.90;;;;;;5056623;28;20252;-40
2022/01/27 06:22:38;;;;;;;22.60;10.23;;;4.60;99.90;;;;;;5074452;28;20179;-43
2022/01/27 06:25:04;;;;;;;27.37;14.27;;;4.60;99.90;;;;;;5074487;28;20708;-42
2022/01/27 06:27:30;;;;;;;18.60;10.73;;;4.70;99.90;;;;;;5074231;28;20256;-41
2022/01/27 06:29:55;;;;;;;21.40;9.90;;;4.60;99.90;;;;;;5074208;28;20171;-41
2022/01/27 06:32:21;;;;;;;30.93;13.30;;;4.60;99.90;;;;;;5074594;28;20639;-43
2022/01/27 06:34:47;;;;;;;21.50;11.43;;;4.60;99.90;;;;;;5074425;28;20180;-41
2022/01/27 06:37:13;;;;;;;31.63;12.93;;;4.60;99.90;;;;;;5074088;28;20241;-41
2022/01/27 06:39:39;;;;;;;33.10;16.93;;;4.70;99.90;;;;;;5073989;28;20661;-40
2022/01/27 06:42:07;;;;;;;25.23;11.30;;;5.80;99.90;;;;;;5073938;28;20201;-42
2022/01/27 06:44:33;;;;;;;29.50;12.27;;;4.70;99.90;;;;;;5074435;28;20196;-42
2022/01/27 06:46:58;;;;;;;29.37;13.10;;;4.70;99.90;;;;;;5073888;28;20198;-42
2022/01/27 06:49:24;;;;;;;24.70;10.03;;;4.70;99.90;;;;;;5073927;28;20532;-43
2022/01/27 06:51:50;;;;;;;23.83;12.67;;;4.70;99.90;;;;;;5073968;28;20639;-41
2022/01/27 06:54:16;;;;;;;24.23;10.53;;;4.70;99.90;;;;;;5074037;28;20175;-41
2022/01/27 06:56:43;;;;;;;25.90;11.60;;;4.70;99.90;;;;;;5055820;28;20698;-43
2022/01/27 06:59:08;;;;;;;29.17;12.90;;;4.70;99.90;;;;;;5074015;28;20186;-41
2022/01/27 07:01:34;;;;;;;23.13;10.60;;;4.70;99.90;;;;;;5073722;28;20179;-42
2022/01/27 07:04:01;;;;;;;34.70;15.80;;;4.70;99.90;;;;;;5073829;28;20207;-43
2022/01/27 07:06:27;;;;;;;18.47;10.13;;;4.80;99.90;;;;;;5073738;28;20655;-43
2022/01/27 07:08:52;;;;;;;22.23;11.13;;;4.80;99.90;;;;;;5073892;28;20186;-41
2022/01/27 07:11:18;;;;;;;22.67;9.87;;;4.80;99.90;;;;;;5073489;28;20198;-43
2022/01/27 07:13:44;;;;;;;16.73;8.67;;;4.80;99.90;;;;;;5073688;28;20262;-41
2022/01/27 07:16:10;;;;;;;27.37;12.50;;;4.80;99.90;;;;;;5073525;28;20198;-43
2022/01/27 07:18:36;;;;;;;31.40;15.97;;;4.80;99.90;;;;;;5073347;28;20199;-43
2022/01/27 07:21:03;;;;;;;45.20;21.80;;;4.90;99.90;;;;;;5073791;28;20670;-43
2022/01/27 07:23:29;;;;;;;25.80;15.43;;;4.90;99.90;;;;;;5073375;28;20178;-45
2022/01/27 07:25:55;;;;;;;26.27;14.07;;;4.90;99.90;;;;;;5073249;28;20233;-47
2022/01/27 07:28:20;;;;;;;16.67;8.63;;;4.90;99.90;;;;;;5073513;28;20654;-44
2022/01/27 07:30:46;;;;;;;29.47;15.13;;;4.90;99.90;;;;;;5073470;28;20245;-45
2022/01/27 07:33:12;;;;;;;26.93;11.77;;;4.90;99.90;;;;;;5073259;28;20176;-46
2022/01/27 07:35:37;;;;;;;24.33;12.93;;;4.90;99.90;;;;;;5073554;28;20187;-45
2022/01/27 07:38:05;;;;;;;22.07;11.50;;;4.90;99.90;;;;;;5055294;28;20179;-45
2022/01/27 07:40:30;;;;;;;20.00;10.33;;;4.90;99.90;;;;;;5073062;28;20195;-46
2022/01/27 07:42:56;;;;;;;19.60;10.57;;;4.90;99.90;;;;;;5073599;28;20175;-46
2022/01/27 07:45:22;;;;;;;29.73;13.50;;;5.00;99.90;;;;;;5073412;28;20223;-45
2022/01/27 07:47:47;;;;;;;36.97;17.73;;;5.00;99.90;;;;;;5073750;28;20179;-46
2022/01/27 07:50:13;;;;;;;19.57;9.27;;;5.00;99.90;;;;;;5073579;28;20257;-46
2022/01/27 07:52:41;;;;;;;30.07;13.70;;;5.00;99.90;;;;;;5077204;28;20176;-48
2022/01/27 07:55:10;;;;;;;23.47;9.37;;;5.00;99.90;;;;;;5073458;28;20191;-44
2022/01/27 07:57:36;;;;;;;24.87;11.30;;;5.10;99.90;;;;;;5073075;28;20523;-46
2022/01/27 08:00:04;;;;;;;35.00;15.57;;;5.10;99.90;;;;;;5073399;28;20180;-45
2022/01/27 08:02:30;;;;;;;31.43;13.73;;;5.10;99.90;;;;;;5073009;28;20237;-45
2022/01/27 08:04:55;;;;;;;38.13;16.57;;;5.10;99.90;;;;;;5073367;28;20203;-47
2022/01/27 08:07:21;;;;;;;26.53;13.33;;;5.10;99.90;;;;;;5073162;28;20728;-46
2022/01/27 08:09:48;;;;;;;31.30;14.20;;;5.10;99.90;;;;;;5073060;28;20545;-46
2022/01/27 08:12:14;;;;;;;31.50;12.90;;;5.10;99.90;;;;;;5073067;28;20669;-44
2022/01/27 08:14:40;;;;;;;42.53;16.50;;;5.10;99.90;;;;;;5073214;28;20183;-47
2022/01/27 08:17:05;;;;;;;30.73;13.17;;;5.10;99.90;;;;;;5073091;28;20667;-42
2022/01/27 08:19:31;;;;;;;22.37;10.57;;;5.10;99.90;;;;;;5073065;28;20184;-46
2022/01/27 08:21:57;;;;;;;28.57;12.33;;;5.10;99.90;;;;;;5054955;28;20180;-46
2022/01/27 08:24:23;;;;;;;39.73;16.67;;;5.10;99.90;;;;;;5072919;28;20667;-45
2022/01/27 08:26:50;;;;;;;31.60;15.23;;;5.20;99.90;;;;;;5072903;28;20554;-44
2022/01/27 08:32:03;;;;;;;24.10;10.30;;;5.20;99.90;;;;;;5076994;28;20179;-47
2022/01/27 08:34:37;;;;;;;24.87;11.70;;;5.20;99.90;;;;;;5076043;28;20555;-48
2022/01/27 08:37:06;;;;;;;25.73;11.67;;;5.20;99.90;;;;;;5076607;28;20248;-46
2022/01/27 08:39:32;;;;;;;29.90;12.93;;;5.20;99.90;;;;;;5076708;28;20183;-45
2022/01/27 08:41:58;;;;;;;33.20;15.13;;;5.20;99.90;;;;;;5076148;28;20203;-45
2022/01/27 08:44:24;;;;;;;24.17;12.20;;;5.20;99.90;;;;;;5058357;28;20294;-44
2022/01/27 08:46:50;;;;;;;26.70;12.60;;;5.10;99.90;;;;;;5076199;28;20207;-43
2022/01/27 08:49:22;;;;;;;27.87;12.27;;;5.10;99.90;;;;;;5076111;28;20183;-45
2022/01/27 08:52:21;;;;;;;26.63;11.27;;;5.10;99.90;;;;;;5058334;28;20195;-48
2022/01/27 08:54:48;;;;;;;26.77;12.77;;;5.10;99.90;;;;;;5076842;28;20659;-45
2022/01/27 08:57:13;;;;;;;21.23;10.60;;;5.00;99.90;;;;;;5057957;28;20275;-45
2022/01/27 08:59:39;;;;;;;15.17;6.97;;;5.00;99.90;;;;;;5076076;28;20206;-46
2022/01/27 09:04:34;;;;;;;23.80;11.23;;;5.00;99.90;;;;;;5053880;28;20228;-39
2022/01/27 09:07:00;;;;;;;32.43;16.47;;;5.00;99.90;;;;;;5056031;28;20204;-43
2022/01/27 09:09:26;;;;;;;35.03;16.90;;;5.00;99.90;;;;;;5055907;28;20207;-42
2022/01/27 09:11:53;;;;;;;33.10;14.30;;;5.00;99.90;;;;;;5055978;28;20567;-42
2022/01/27 09:14:18;;;;;;;25.83;11.83;;;5.00;99.90;;;;;;5056031;28;20172;-39
2022/01/27 09:16:44;;;;;;;31.03;16.97;;;5.00;99.90;;;;;;5055707;28;20200;-41
2022/01/27 09:19:09;;;;;;;41.20;14.30;;;5.00;99.90;;;;;;5055790;28;20267;-39
2022/01/27 09:21:45;;;;;;;28.07;13.73;;;5.00;99.90;;;;;;5055667;28;20275;-41
2022/01/27 09:24:18;;;;;;;24.50;10.77;;;5.10;99.90;;;;;;5055866;28;20204;-40
2022/01/27 09:29:15;;;;;;;26.00;12.83;;;5.10;99.90;;;;;;5055832;28;20188;-39
2022/01/27 09:31:41;;;;;;;35.80;14.83;;;5.00;99.90;;;;;;5055405;28;20579;-43
2022/01/27 09:34:06;;;;;;;31.93;15.93;;;5.00;99.90;;;;;;5037724;28;20331;-41
2022/01/27 09:36:32;;;;;;;31.83;14.67;;;5.00;99.90;;;;;;5055354;28;20648;-41
2022/01/27 09:38:58;;;;;;;34.47;14.40;;;5.10;99.90;;;;;;5037474;28;20275;-41
2022/01/27 09:41:25;;;;;;;25.97;12.17;;;5.10;99.90;;;;;;5055242;28;20327;-44
2022/01/27 09:43:53;;;;;;;33.70;15.40;;;5.10;99.90;;;;;;5055049;28;20212;-43
2022/01/27 09:46:23;;;;;;;29.93;14.10;;;5.10;99.90;;;;;;5055219;28;20221;-43
2022/01/27 09:48:50;;;;;;;25.20;12.17;;;5.10;99.90;;;;;;5055479;28;20240;-44
2022/01/27 09:53:45;;;;;;;18.47;8.27;;;5.10;99.90;;;;;;5055168;28;20610;-41
2022/01/27 09:56:11;;;;;;;32.50;13.83;;;5.10;99.90;;;;;;5055153;28;20207;-41
2022/01/27 09:58:37;;;;;;;27.00;12.67;;;5.10;99.90;;;;;;5055268;28;20200;-45
2022/01/27 10:01:04;;;;;;;33.83;14.13;;;5.10;99.90;;;;;;5037036;28;20184;-45
2022/01/27 10:03:31;;;;;;;33.93;14.00;;;5.10;99.90;;;;;;5054564;28;20191;-44
2022/01/27 10:06:13;;;;;;;35.53;17.17;;;5.20;99.90;;;;;;5054727;28;20188;-43
2022/01/27 10:08:41;;;;;;;26.53;13.77;;;5.20;99.90;;;;;;5054658;28;20169;-43
2022/01/27 10:11:19;;;;;;;19.47;8.33;;;5.20;99.90;;;;;;5054870;28;20164;-43
2022/01/27 10:13:49;;;;;;;25.37;11.90;;;5.30;99.90;;;;;;5036896;28;20176;-45
2022/01/27 10:16:29;;;;;;;33.30;11.37;;;5.30;99.90;;;;;;5054438;28;20679;-43
2022/01/27 10:19:08;;;;;;;20.03;9.93;;;5.30;99.90;;;;;;5036610;28;20187;-44
2022/01/27 10:21:35;;;;;;;29.40;14.53;;;7.20;99.90;;;;;;5054735;28;20701;-45
2022/01/27 10:24:31;;;;;;;21.97;12.67;;;5.30;99.90;;;;;;5054599;28;20204;-45
2022/01/27 10:32:37;;;;;;;23.73;11.97;;;5.40;99.90;;;;;;5054336;28;20153;-45
2022/01/27 10:35:04;;;;;;;22.27;12.37;;;5.50;99.90;;;;;;5036371;28;20176;-44
2022/01/27 10:37:52;;;;;;;13.87;8.00;;;5.50;99.90;;;;;;5054317;28;20295;-45
2022/01/27 10:40:24;;;;;;;19.57;10.63;;;5.50;99.90;;;;;;5054458;28;20643;-44
2022/01/27 10:43:13;;;;;;;12.87;5.33;;;5.50;99.90;;;;;;5054106;28;20179;-43
2022/01/27 10:45:58;;;;;;;17.93;9.60;;;5.60;99.90;;;;;;5053925;28;20215;-43
2022/01/27 10:48:27;;;;;;;20.07;10.90;;;5.60;99.90;;;;;;5036161;28;20165;-43
2022/01/27 10:51:07;;;;;;;15.27;6.67;;;5.60;99.90;;;;;;5036043;28;20179;-45
2022/01/27 10:53:50;;;;;;;24.40;11.93;;;5.60;99.90;;;;;;5035654;28;20222;-43
2022/01/27 10:56:20;;;;;;;21.80;10.60;;;5.60;99.90;;;;;;5053774;28;20207;-41
2022/01/27 10:58:46;;;;;;;23.33;12.50;;;5.70;99.90;;;;;;5035950;28;20255;-43
2022/01/27 11:01:21;;;;;;;27.93;13.57;;;5.70;99.90;;;;;;5053853;28;20195;-45
2022/01/27 11:03:52;;;;;;;27.57;14.23;;;5.70;99.90;;;;;;5035671;28;20262;-45
2022/01/27 11:06:20;;;;;;;22.13;10.67;;;5.70;99.90;;;;;;5036132;28;20200;-43
2022/01/27 11:08:47;;;;;;;24.73;10.80;;;5.70;99.90;;;;;;5053768;28;20173;-45
2022/01/27 11:11:13;;;;;;;21.83;10.90;;;5.80;99.90;;;;;;5053967;28;20182;-45
2022/01/27 11:13:40;;;;;;;12.23;7.63;;;5.80;99.90;;;;;;5036079;28;20234;-46
2022/01/27 11:16:12;;;;;;;19.57;10.30;;;5.80;99.90;;;;;;5054025;28;20270;-45
2022/01/27 11:18:38;;;;;;;15.83;9.37;;;5.90;99.90;;;;;;5035717;28;20205;-44
2022/01/27 11:21:12;;;;;;;23.97;10.13;;;5.90;99.90;;;;;;5053644;28;20168;-45
2022/01/27 11:26:08;;;;;;;20.67;11.07;;;5.90;99.90;;;;;;5053609;28;20193;-41
2022/01/27 11:28:35;;;;;;;20.40;12.00;;;5.90;99.90;;;;;;5053658;28;20514;-45
2022/01/27 11:31:29;;;;;;;20.97;10.20;;;5.90;99.90;;;;;;5053280;28;20172;-43
2022/01/27 11:33:59;;;;;;;18.37;10.90;;;5.90;99.90;;;;;;5036202;28;20230;-46
2022/01/27 11:36:26;;;;;;;18.30;11.03;;;5.90;99.90;;;;;;5035473;28;20262;-45
2022/01/27 11:38:51;;;;;;;17.03;9.47;;;5.90;99.90;;;;;;5035615;28;20708;-45
2022/01/27 11:41:39;;;;;;;16.20;9.83;;;6.00;99.90;;;;;;5035440;28;20279;-44
2022/01/27 11:44:28;;;;;;;16.60;9.10;;;6.00;99.90;;;;;;5053059;28;20211;-46
2022/01/27 11:49:46;;;;;;;19.13;11.30;;;6.00;99.90;;;;;;5053428;28;20177;-46
2022/01/27 11:52:19;;;;;;;16.43;8.57;;;6.00;99.90;;;;;;5035199;28;20168;-46
2022/01/27 11:54:45;;;;;;;16.23;9.73;;;6.00;99.90;;;;;;5035202;28;20169;-44
2022/01/27 11:57:48;;;;;;;14.47;7.93;;;6.00;99.90;;;;;;5053004;28;20539;-45
2022/01/27 12:00:23;;;;;;;14.83;8.20;;;6.00;99.90;;;;;;5053272;28;20179;-46
2022/01/27 12:03:01;;;;;;;13.23;7.40;;;6.00;99.90;;;;;;5053041;28;20208;-45
2022/01/27 12:05:30;;;;;;;14.27;7.67;;;6.00;99.90;;;;;;5055808;28;20202;-45
2022/01/27 12:08:14;;;;;;;19.57;11.33;;;6.00;99.90;;;;;;5039202;28;20176;-46
2022/01/27 12:10:50;;;;;;;12.37;7.37;;;6.10;99.90;;;;;;5057043;28;20576;-47
2022/01/27 12:13:30;;;;;;;15.67;8.80;;;6.10;99.90;;;;;;5056974;28;20157;-46
2022/01/27 12:16:38;;;;;;;12.70;8.33;;;6.10;99.90;;;;;;5038936;28;20751;-43
2022/01/27 12:19:10;;;;;;;8.90;5.07;;;6.10;99.90;;;;;;5056863;28;20678;-46
2022/01/27 12:21:50;;;;;;;20.47;10.60;;;6.10;99.90;;;;;;5056792;28;20165;-44
2022/01/27 12:24:24;;;;;;;12.53;8.17;;;6.10;99.90;;;;;;5056892;28;20202;-45
2022/01/27 12:27:00;;;;;;;15.13;9.57;;;6.10;99.90;;;;;;5056826;28;20237;-45
2022/01/27 12:29:35;;;;;;;14.40;9.43;;;6.10;99.90;;;;;;5057019;28;20510;-43
2022/01/27 12:32:07;;;;;;;14.87;8.77;;;6.10;99.90;;;;;;5039225;28;20168;-43
2022/01/27 12:34:35;;;;;;;20.03;11.80;;;6.10;99.90;;;;;;5057245;28;20175;-42
2022/01/27 12:37:09;;;;;;;26.70;15.13;;;6.10;99.90;;;;;;5056929;28;20207;-45
2022/01/27 12:39:40;;;;;;;17.67;11.17;;;6.10;99.90;;;;;;5038708;28;20239;-42
2022/01/27 12:42:16;;;;;;;18.40;11.40;;;6.10;99.90;;;;;;5038545;28;20174;-42
2022/01/27 12:45:00;;;;;;;17.33;9.70;;;6.10;99.90;;;;;;5056599;28;20198;-44
2022/01/27 12:47:29;;;;;;;18.80;11.07;;;6.20;99.90;;;;;;5038461;28;20283;-44
2022/01/27 12:50:05;;;;;;;16.47;10.47;;;6.20;99.90;;;;;;5057095;28;20559;-46
2022/01/27 12:52:36;;;;;;;10.83;6.50;;;6.20;99.90;;;;;;5039320;28;20156;-42
2022/01/27 12:55:03;;;;;;;14.90;9.53;;;6.20;99.90;;;;;;5038480;28;20184;-44
2022/01/27 12:57:30;;;;;;;15.60;9.03;;;6.20;99.90;;;;;;5056184;28;20199;-42
2022/01/27 12:59:57;;;;;;;15.63;9.03;;;6.20;99.90;;;;;;5056069;28;20186;-42
2022/01/27 13:02:25;;;;;;;15.90;9.80;;;6.20;99.90;;;;;;5056110;28;20178;-45
2022/01/27 13:04:56;;;;;;;14.90;9.60;;;6.30;99.90;;;;;;5056187;28;20592;-43
2022/01/27 13:07:22;;;;;;;15.40;9.93;;;6.30;99.90;;;;;;5055890;28;20259;-42
2022/01/27 13:10:01;;;;;;;17.73;11.50;;;6.30;99.90;;;;;;5056182;28;20186;-44
2022/01/27 13:12:33;;;;;;;15.30;9.33;;;6.30;99.90;;;;;;5056293;28;20172;-42
2022/01/27 13:15:06;;;;;;;13.33;7.93;;;6.30;99.90;;;;;;5055541;28;20255;-41
2022/01/27 13:17:43;;;;;;;12.57;7.60;;;6.20;99.90;;;;;;5038877;28;20289;-43
2022/01/27 13:20:29;;;;;;;12.77;8.20;;;6.30;99.90;;;;;;5055642;28;20519;-42
2022/01/27 13:23:04;;;;;;;16.77;8.97;;;6.30;99.90;;;;;;5055790;28;20220;-41
2022/01/27 13:25:54;;;;;;;11.90;7.93;;;6.30;99.90;;;;;;5055841;28;20252;-39
2022/01/27 13:28:23;;;;;;;12.27;7.77;;;6.30;99.90;;;;;;5037741;28;20650;-45
2022/01/27 13:30:55;;;;;;;10.50;6.47;;;6.30;99.90;;;;;;5037504;28;20185;-44
2022/01/27 13:33:23;;;;;;;10.87;6.70;;;6.30;99.90;;;;;;5055710;28;20497;-42
2022/01/27 13:35:51;;;;;;;12.27;7.97;;;6.40;99.90;;;;;;5055473;28;20601;-44
2022/01/27 13:38:24;;;;;;;12.50;6.80;;;6.40;99.90;;;;;;5037461;28;20181;-43
2022/01/27 13:41:19;;;;;;;11.70;7.13;;;6.40;99.90;;;;;;5055530;28;20679;-43